createdAt,value
2023-02-03T01:33:54.451Z,188.17
2023-02-03T01:34:54.348Z,187.63
2023-02-03T01:35:54.316Z,187.38
2023-02-03T01:36:54.262Z,187.25
2023-02-03T01:37:54.276Z,186.55
2023-02-03T01:38:54.202Z,188.55
2023-02-03T01:39:54.172Z,188.84
2023-02-03T01:40:54.125Z,189.99
2023-02-03T01:41:54.086Z,187.38
2023-02-03T01:42:54.057Z,186.73
2023-02-03T01:43:54.031Z,186.77
2023-02-03T01:44:53.987Z,187.29
2023-02-03T01:45:54.064Z,188.32
2023-02-03T01:46:53.879Z,187.55
2023-02-03T01:47:53.851Z,188.72
2023-02-03T01:48:53.827Z,186.11
2023-02-03T01:49:53.797Z,187.43
2023-02-03T01:50:53.762Z,187.49
2023-02-03T01:51:53.710Z,187.54
2023-02-03T01:52:53.685Z,189.23
2023-02-03T01:53:53.648Z,188.52
2023-02-03T01:54:53.627Z,186.52
2023-02-03T01:55:53.596Z,189.90
2023-02-03T01:56:53.576Z,185.49
2023-02-03T01:57:53.509Z,189.70
2023-02-03T01:58:53.510Z,186.75
2023-02-03T01:59:53.510Z,186.97
2023-02-03T02:00:53.521Z,188.50
2023-02-03T02:01:53.536Z,187.20
2023-02-03T02:02:53.564Z,186.76
2023-02-03T02:03:53.542Z,186.41
2023-02-03T02:04:53.898Z,187.14
2023-02-03T02:05:53.261Z,187.42
2023-02-03T02:06:53.196Z,189.56
2023-02-03T02:07:53.192Z,188.59
2023-02-03T02:08:53.141Z,186.79
2023-02-03T02:09:53.115Z,188.10
2023-02-03T02:10:53.088Z,189.54
2023-02-03T02:11:53.053Z,189.82
2023-02-03T02:12:53.024Z,188.17
2023-02-03T02:13:52.987Z,187.13
2023-02-03T02:14:52.954Z,187.50
2023-02-03T02:15:52.982Z,187.84
2023-02-03T02:16:52.950Z,186.19
2023-02-03T02:17:52.859Z,188.42
2023-02-03T02:18:52.843Z,188.76
2023-02-03T02:19:52.798Z,184.23
2023-02-03T02:20:52.769Z,185.92
2023-02-03T02:21:52.741Z,186.08
2023-02-03T02:22:52.723Z,188.32
2023-02-03T02:23:52.737Z,189.04
2023-02-03T02:24:52.650Z,187.77
2023-02-03T02:25:52.603Z,188.68
2023-02-03T02:26:52.580Z,188.64
2023-02-03T02:27:52.557Z,188.63
2023-02-03T02:28:52.520Z,187.26
2023-02-03T02:29:52.447Z,186.29
2023-02-03T02:30:52.571Z,186.48
2023-02-03T02:31:52.481Z,186.80
2023-02-03T02:32:52.366Z,187.85
2023-02-03T02:33:52.335Z,188.15
2023-02-03T02:34:52.308Z,186.30
2023-02-03T02:35:52.228Z,188.87
2023-02-03T02:36:52.208Z,186.56
2023-02-03T02:37:52.268Z,188.75
2023-02-03T02:38:52.124Z,188.51
2023-02-03T02:39:52.116Z,188.88
2023-02-03T02:40:52.069Z,187.36
2023-02-03T02:41:52.008Z,185.32
2023-02-03T02:42:51.969Z,186.41
2023-02-03T02:43:51.934Z,186.07
2023-02-03T02:44:51.894Z,185.61
2023-02-03T02:45:51.872Z,187.06
2023-02-03T02:46:51.839Z,188.93
2023-02-03T02:47:51.844Z,187.96
2023-02-03T02:48:51.772Z,185.78
2023-02-03T02:49:51.731Z,186.97
2023-02-03T02:50:51.680Z,188.18
2023-02-03T02:51:51.637Z,188.06
2023-02-03T02:52:51.604Z,185.84
2023-02-03T02:53:51.572Z,186.32
2023-02-03T02:54:51.541Z,186.80
2023-02-03T02:55:51.512Z,183.81
2023-02-03T02:56:51.469Z,188.09
2023-02-03T02:57:51.414Z,186.64
2023-02-03T02:58:51.985Z,187.13
2023-02-03T02:59:51.369Z,187.04
2023-02-03T03:00:51.315Z,189.69
2023-02-03T03:01:51.331Z,187.49
2023-02-03T03:02:51.233Z,187.73
2023-02-03T03:03:51.195Z,187.98
2023-02-03T03:04:52.011Z,188.11
2023-02-03T03:05:51.130Z,187.40
2023-02-03T03:06:51.118Z,189.11
2023-02-03T03:07:51.051Z,188.83
2023-02-03T03:08:51.002Z,189.26
2023-02-03T03:09:50.988Z,187.98
2023-02-03T03:10:50.931Z,187.33
2023-02-03T03:11:50.888Z,188.91
2023-02-03T03:12:50.867Z,189.41
2023-02-03T03:14:51.982Z,188.45
2023-02-03T05:15:46.167Z,186.85
2023-02-03T05:17:46.100Z,190.73
2023-02-03T05:18:46.061Z,188.77
2023-02-03T05:19:46.026Z,188.19
2023-02-03T05:20:45.980Z,188.15
2023-02-03T05:21:45.968Z,189.51
2023-02-03T05:22:45.892Z,188.64
2023-02-03T05:23:45.845Z,189.61
2023-02-03T05:24:45.794Z,186.47
2023-02-03T05:25:45.776Z,191.05
2023-02-03T05:26:45.756Z,191.25
2023-02-03T05:27:45.708Z,189.45
2023-02-03T05:28:45.643Z,190.30
2023-02-03T05:29:45.612Z,188.40
2023-02-03T05:30:45.663Z,189.17
2023-02-03T05:31:45.585Z,187.39
2023-02-03T05:32:45.475Z,189.57
2023-02-03T05:33:45.438Z,189.50
2023-02-03T05:34:45.392Z,187.99
2023-02-03T05:35:45.357Z,190.25
2023-02-03T05:36:45.318Z,189.08
2023-02-03T05:37:45.293Z,188.96
2023-02-03T05:38:45.246Z,188.08
2023-02-03T05:39:45.219Z,188.23
2023-02-03T05:40:45.171Z,189.51
2023-02-03T05:41:45.160Z,190.83
2023-02-03T05:42:45.132Z,188.83
2023-02-03T05:43:45.085Z,191.09
2023-02-03T05:44:45.025Z,189.15
2023-02-03T05:45:45.028Z,189.95
2023-02-03T05:46:44.965Z,189.08
2023-02-03T05:48:44.865Z,188.51
2023-02-03T05:49:44.867Z,191.09
2023-02-03T05:50:44.791Z,189.25
2023-02-03T05:52:44.704Z,188.38
2023-02-03T05:53:44.674Z,191.16
2023-02-03T05:54:44.636Z,189.35
2023-02-03T05:55:44.608Z,190.42
2023-02-03T05:56:44.585Z,192.28
2023-02-03T05:57:44.552Z,193.10
2023-02-03T05:58:44.512Z,191.27
2023-02-03T05:59:44.472Z,188.29
2023-02-03T06:00:44.405Z,189.20
2023-02-03T06:01:44.392Z,189.89
2023-02-03T06:02:44.336Z,190.23
2023-02-03T06:03:46.221Z,189.16
2023-02-03T06:04:44.313Z,193.59
2023-02-03T06:05:44.371Z,191.05
2023-02-03T06:07:44.315Z,191.43
2023-02-03T06:08:44.289Z,190.38
2023-02-03T06:09:44.075Z,192.46
2023-02-03T06:10:44.048Z,194.22
2023-02-03T06:11:43.991Z,192.71
2023-02-03T06:12:44.557Z,189.21
2023-02-03T06:13:43.909Z,192.89
2023-02-03T06:14:43.880Z,192.02
2023-02-03T06:15:43.843Z,193.96
2023-02-03T06:16:43.839Z,192.60
2023-02-03T06:17:43.783Z,192.20
2023-02-03T06:18:43.750Z,190.70
2023-02-03T06:19:43.732Z,190.09
2023-02-03T06:20:43.643Z,193.49
2023-02-03T06:21:43.598Z,189.81
2023-02-03T06:22:43.562Z,192.68
2023-02-03T06:23:43.525Z,194.00
2023-02-03T06:24:43.484Z,195.23
2023-02-03T06:25:43.428Z,195.56
2023-02-03T06:26:43.413Z,196.48
2023-02-03T06:27:43.450Z,198.47
2023-02-03T06:28:43.319Z,199.73
2023-02-03T06:29:43.284Z,201.43
2023-02-03T06:30:43.473Z,201.57
2023-02-03T06:31:43.350Z,201.67
2023-02-03T06:32:43.198Z,203.41
2023-02-03T06:33:43.129Z,171.39
2023-02-03T06:34:43.091Z,128.29
2023-02-03T06:35:43.045Z,119.79
2023-02-03T06:36:43.022Z,114.16
2023-02-03T06:37:42.985Z,108.77
2023-02-03T06:38:42.993Z,113.23
2023-02-03T06:40:43.155Z,134.13
2023-02-03T06:41:43.096Z,156.93
2023-02-03T06:42:43.092Z,173.57
2023-02-03T06:43:43.129Z,169.86
2023-02-03T06:44:43.071Z,147.60
2023-02-03T06:45:43.194Z,126.18
2023-02-03T06:47:43.250Z,79.01
2023-02-03T06:48:43.157Z,70.70
2023-02-03T06:49:43.172Z,80.76
2023-02-03T06:50:43.158Z,88.93
2023-02-03T06:52:43.225Z,47.40
2023-02-03T06:54:43.233Z,36.29
2023-02-03T06:55:43.270Z,38.31
2023-02-03T06:56:43.243Z,34.99
2023-02-03T06:57:43.419Z,33.44
2023-02-03T06:58:43.274Z,27.36
2023-02-03T07:00:43.247Z,27.17
2023-02-03T07:02:43.354Z,28.83
2023-02-03T07:05:43.209Z,43.19
2023-02-03T07:06:43.270Z,38.54
2023-02-03T07:07:43.319Z,35.17
2023-02-03T07:08:43.559Z,40.84
2023-02-03T07:09:43.176Z,40.61
2023-02-03T07:10:43.185Z,45.03
2023-02-03T07:11:43.177Z,49.13
2023-02-03T07:12:43.119Z,52.21
2023-02-03T07:13:43.254Z,52.28
2023-02-03T07:14:43.096Z,52.68
2023-02-03T07:15:43.137Z,61.24
2023-02-03T07:16:43.086Z,65.86
2023-02-03T07:17:43.080Z,71.31
2023-02-03T07:18:47.398Z,70.74
2023-02-03T07:19:45.102Z,71.14
2023-02-03T07:20:43.011Z,72.49
2023-02-03T07:21:42.998Z,74.17
2023-02-03T07:22:43.013Z,77.12
2023-02-03T07:23:43.081Z,81.80
2023-02-03T07:24:43.002Z,84.80
2023-02-03T07:25:43.022Z,86.80
2023-02-03T07:26:43.615Z,88.82
2023-02-03T07:27:43.959Z,91.13
2023-02-03T07:28:42.942Z,91.83
2023-02-03T07:29:42.855Z,89.17
2023-02-03T07:30:42.886Z,87.42
2023-02-03T07:31:42.972Z,87.01
2023-02-03T07:32:42.874Z,85.11
2023-02-03T07:33:42.809Z,79.92
2023-02-03T07:34:42.779Z,81.52
2023-02-03T07:35:42.777Z,83.28
2023-02-03T07:36:42.754Z,84.40
2023-02-03T07:37:42.730Z,86.80
2023-02-03T07:38:43.126Z,88.91
2023-02-03T07:39:42.708Z,89.47
2023-02-03T07:40:42.756Z,93.86
2023-02-03T07:41:42.751Z,94.87
2023-02-03T07:42:44.956Z,103.14
2023-02-03T07:43:42.729Z,108.45
2023-02-03T07:44:42.688Z,108.86
2023-02-03T07:45:43.104Z,106.99
2023-02-03T07:46:42.666Z,113.92
2023-02-03T07:47:44.008Z,116.90
2023-02-03T07:48:42.496Z,116.47
2023-02-03T07:49:43.202Z,122.92
2023-02-03T07:50:42.478Z,125.30
2023-02-03T07:51:42.409Z,126.53
2023-02-03T07:52:42.355Z,124.85
2023-02-03T07:53:42.389Z,124.15
2023-02-03T07:54:42.320Z,124.21
2023-02-03T07:55:42.449Z,123.74
2023-02-03T07:56:42.270Z,124.50
2023-02-03T07:57:42.202Z,126.96
2023-02-03T07:58:42.179Z,129.68
2023-02-03T07:59:42.158Z,132.69
2023-02-03T08:00:42.132Z,132.90
2023-02-03T08:01:42.169Z,134.40
2023-02-03T08:02:42.065Z,135.24
2023-02-03T08:03:42.052Z,138.24
2023-02-03T08:04:42.101Z,136.22
2023-02-03T08:05:41.955Z,138.79
2023-02-03T08:06:41.920Z,137.86
2023-02-03T08:07:41.972Z,139.42
2023-02-03T08:08:41.903Z,141.16
2023-02-03T08:09:41.890Z,140.09
2023-02-03T08:10:41.870Z,142.54
2023-02-03T08:11:41.777Z,152.46
2023-02-03T08:12:43.940Z,152.72
2023-02-03T08:13:41.715Z,153.43
2023-02-03T08:14:41.625Z,154.86
2023-02-03T08:15:41.619Z,156.67
2023-02-03T08:16:42.609Z,157.38
2023-02-03T08:17:41.682Z,159.98
2023-02-03T08:18:42.148Z,161.26
2023-02-03T08:19:41.434Z,161.69
2023-02-03T08:20:41.500Z,161.77
2023-02-03T08:21:41.365Z,166.70
2023-02-03T08:22:41.309Z,165.94
2023-02-03T08:23:41.277Z,166.23
2023-02-03T08:24:41.261Z,166.46
2023-02-03T08:25:41.190Z,166.93
2023-02-03T08:26:41.129Z,166.98
2023-02-03T08:27:41.163Z,171.53
2023-02-03T08:28:41.628Z,175.81
2023-02-03T08:29:41.034Z,178.48
2023-02-03T08:30:40.946Z,178.54
2023-02-03T08:31:41.020Z,180.46
2023-02-03T08:32:40.873Z,183.27
2023-02-03T08:33:41.025Z,180.71
2023-02-03T08:34:41.234Z,183.43
2023-02-03T08:35:40.749Z,179.23
2023-02-03T08:36:40.751Z,178.98
2023-02-03T08:37:40.671Z,173.94
2023-02-03T08:38:40.725Z,170.82
2023-02-03T08:39:41.153Z,126.69
2023-02-03T08:40:40.501Z,83.16
2023-02-03T08:41:40.508Z,88.75
2023-02-03T08:42:43.137Z,103.94
2023-02-03T08:43:40.471Z,124.30
2023-02-03T08:44:40.414Z,132.11
2023-02-03T08:45:40.427Z,143.33
2023-02-03T08:46:40.334Z,136.16
2023-02-03T08:47:40.312Z,147.90
2023-02-03T08:48:40.246Z,140.36
2023-02-03T08:49:40.266Z,139.89
2023-02-03T08:50:40.352Z,141.16
2023-02-03T08:52:40.136Z,144.44
2023-02-03T08:53:40.125Z,141.95
2023-02-03T08:54:41.096Z,140.24
2023-02-03T08:55:40.057Z,138.69
2023-02-03T08:56:39.952Z,129.66
2023-02-03T08:57:40.925Z,129.47
2023-02-03T08:58:39.998Z,131.88
2023-02-03T08:59:39.872Z,123.57
2023-02-03T09:00:40.000Z,130.23
2023-02-03T09:02:39.819Z,136.22
2023-02-03T09:03:42.704Z,138.19
2023-02-03T09:04:39.780Z,138.47
2023-02-03T09:05:39.684Z,139.32
2023-02-03T09:06:39.697Z,139.86
2023-02-03T09:07:39.636Z,143.78
2023-02-03T09:08:39.591Z,147.99
2023-02-03T09:09:39.608Z,138.84
2023-02-03T09:10:39.510Z,140.55
2023-02-03T09:12:44.169Z,147.38
2023-02-03T09:13:39.359Z,138.89
2023-02-03T09:14:39.342Z,141.54
2023-02-03T09:15:39.336Z,145.35
2023-02-03T09:16:39.268Z,155.36
2023-02-03T09:17:39.205Z,165.80
2023-02-03T09:18:39.259Z,167.99
2023-02-03T09:19:39.203Z,168.59
2023-02-03T09:20:39.277Z,167.83
2023-02-03T09:21:44.843Z,170.45
2023-02-03T09:23:41.664Z,171.70
2023-02-03T09:24:41.667Z,172.78
2023-02-03T09:25:38.910Z,170.95
2023-02-03T09:26:38.835Z,172.78
2023-02-03T09:27:38.820Z,174.86
2023-02-03T09:28:38.853Z,179.52
2023-02-03T09:29:38.686Z,185.14
2023-02-03T09:30:38.694Z,184.08
2023-02-03T09:31:38.702Z,184.77
2023-02-03T09:32:38.587Z,186.80
2023-02-03T09:33:38.526Z,188.01
2023-02-03T09:34:38.544Z,187.98
2023-02-03T09:35:38.441Z,188.13
2023-02-03T09:36:38.405Z,187.34
2023-02-03T09:37:38.374Z,189.98
2023-02-03T09:38:38.289Z,190.30
2023-02-03T09:39:38.262Z,190.62
2023-02-03T09:41:38.374Z,192.95
2023-02-03T09:42:38.181Z,194.30
2023-02-03T09:43:38.087Z,196.12
2023-02-03T09:44:38.312Z,193.65
2023-02-03T09:45:38.045Z,194.92
2023-02-03T09:46:37.996Z,188.90
2023-02-03T09:47:37.929Z,194.43
2023-02-03T09:48:37.919Z,191.71
2023-02-03T09:49:37.840Z,195.33
2023-02-03T09:50:37.775Z,194.57
2023-02-03T09:51:38.680Z,195.59
2023-02-03T09:52:37.732Z,196.83
2023-02-03T09:53:37.746Z,192.48
2023-02-03T09:54:37.636Z,195.74
2023-02-03T09:55:37.593Z,198.30
2023-02-03T09:56:37.506Z,196.81
2023-02-03T09:57:37.637Z,194.82
2023-02-03T09:58:37.465Z,194.64
2023-02-03T09:59:37.407Z,196.27
2023-02-03T10:00:37.312Z,195.02
2023-02-03T10:01:37.354Z,203.64
2023-02-03T10:02:37.364Z,192.67
2023-02-03T10:03:37.161Z,192.85
2023-02-03T10:04:37.134Z,194.42
2023-02-03T10:05:37.100Z,196.57
2023-02-03T10:06:37.034Z,201.78
2023-02-03T10:07:37.017Z,202.67
2023-02-03T10:08:36.966Z,205.06
2023-02-03T10:09:36.889Z,200.29
2023-02-03T10:10:36.931Z,204.54
2023-02-03T10:11:36.807Z,204.91
2023-02-03T10:12:36.743Z,201.41
2023-02-03T10:13:38.094Z,201.87
2023-02-03T10:14:36.631Z,200.55
2023-02-03T10:15:36.589Z,206.72
2023-02-03T10:16:36.590Z,204.70
2023-02-03T10:17:36.488Z,205.26
2023-02-03T10:18:37.174Z,200.20
2023-02-03T10:19:36.400Z,209.08
2023-02-03T10:21:37.247Z,202.29
2023-02-03T10:22:37.243Z,212.02
2023-02-03T10:23:36.165Z,209.30
2023-02-03T10:24:36.146Z,209.47
2023-02-03T10:25:36.057Z,202.83
2023-02-03T10:26:36.057Z,204.78
2023-02-03T10:27:36.042Z,205.88
2023-02-03T10:28:35.905Z,210.32
2023-02-03T10:29:35.921Z,200.64
2023-02-03T10:30:35.962Z,201.16
2023-02-03T10:31:36.533Z,206.31
2023-02-03T10:32:35.734Z,206.03
2023-02-03T10:33:35.689Z,207.67
2023-02-03T10:34:36.169Z,203.84
2023-02-03T10:35:35.674Z,210.86
2023-02-03T10:36:35.692Z,206.89
2023-02-03T10:38:35.427Z,207.53
2023-02-03T10:39:35.363Z,207.88
2023-02-03T10:40:35.371Z,208.70
2023-02-03T10:41:35.745Z,204.42
2023-02-03T10:42:35.311Z,209.97
2023-02-03T10:43:35.135Z,199.85
2023-02-03T10:44:35.084Z,209.89
2023-02-03T10:45:35.031Z,204.79
2023-02-03T10:46:35.840Z,211.34
2023-02-03T10:47:35.959Z,210.82
2023-02-03T10:48:35.768Z,215.62
2023-02-03T10:49:34.797Z,203.57
2023-02-03T10:50:34.767Z,206.61
2023-02-03T10:51:35.665Z,201.78
2023-02-03T10:52:34.734Z,196.08
2023-02-03T10:53:34.571Z,196.14
2023-02-03T10:54:34.575Z,193.85
2023-02-03T10:55:34.499Z,192.29
2023-02-03T10:56:34.411Z,181.28
2023-02-03T10:57:34.392Z,180.12
2023-02-03T10:58:35.295Z,181.66
2023-02-03T10:59:34.316Z,179.57
2023-02-03T11:00:34.442Z,179.88
2023-02-03T11:01:34.291Z,179.79
2023-02-03T11:02:34.165Z,182.28
2023-02-03T11:03:34.760Z,183.54
2023-02-03T11:04:34.018Z,181.37
2023-02-03T11:05:33.934Z,173.72
2023-02-03T11:06:33.877Z,175.37
2023-02-03T11:07:33.872Z,173.03
2023-02-03T11:08:33.814Z,171.42
2023-02-03T11:09:33.743Z,168.22
2023-02-03T11:10:33.654Z,172.40
2023-02-03T11:11:33.684Z,167.60
2023-02-03T11:12:34.402Z,169.95
2023-02-03T11:13:33.524Z,171.54
2023-02-03T11:14:33.593Z,169.45
2023-02-03T11:15:33.491Z,168.73
2023-02-03T11:16:33.342Z,172.13
2023-02-03T11:17:33.322Z,174.25
2023-02-03T11:18:33.257Z,172.59
2023-02-03T11:19:33.245Z,173.01
2023-02-03T11:20:33.193Z,175.70
2023-02-03T11:21:33.274Z,176.73
2023-02-03T11:22:33.193Z,177.93
2023-02-03T11:23:32.950Z,178.13
2023-02-03T11:24:33.010Z,178.71
2023-02-03T11:25:32.895Z,180.56
2023-02-03T11:26:32.790Z,180.30
2023-02-03T11:27:32.743Z,181.94
2023-02-03T11:28:32.833Z,178.14
2023-02-03T11:29:32.617Z,181.70
2023-02-03T11:30:32.598Z,177.80
2023-02-03T11:31:32.657Z,173.54
2023-02-03T11:32:32.490Z,177.43
2023-02-03T11:33:32.433Z,176.46
2023-02-03T11:34:32.464Z,171.81
2023-02-03T11:35:32.278Z,175.25
2023-02-03T11:36:32.258Z,172.75
2023-02-03T11:37:32.177Z,173.68
2023-02-03T11:38:32.206Z,177.09
2023-02-03T11:39:32.043Z,174.07
2023-02-03T11:40:32.004Z,174.96
2023-02-03T11:41:31.972Z,175.24
2023-02-03T11:42:31.930Z,175.24
2023-02-03T11:43:31.811Z,171.80
2023-02-03T11:44:31.882Z,171.86
2023-02-03T11:45:31.750Z,166.76
2023-02-03T11:46:31.706Z,170.94
2023-02-03T11:47:31.654Z,163.37
2023-02-03T11:48:31.659Z,163.68
2023-02-03T11:49:32.127Z,164.18
2023-02-03T11:50:31.560Z,164.13
2023-02-03T11:51:31.392Z,165.61
2023-02-03T11:52:31.370Z,166.95
2023-02-03T11:53:31.764Z,170.70
2023-02-03T11:54:31.249Z,170.25
2023-02-03T11:55:31.200Z,174.13
2023-02-03T11:56:31.154Z,172.26
2023-02-03T11:57:31.158Z,172.45
2023-02-03T11:58:31.015Z,171.82
2023-02-03T11:59:30.993Z,178.63
2023-02-03T12:00:30.891Z,176.57
2023-02-03T12:01:30.866Z,174.71
2023-02-03T12:02:30.827Z,174.42
2023-02-03T12:03:31.757Z,179.44
2023-02-03T12:04:30.727Z,179.67
2023-02-03T12:05:30.648Z,180.34
2023-02-03T12:06:31.444Z,180.67
2023-02-03T12:07:30.505Z,182.90
2023-02-03T12:08:30.669Z,180.91
2023-02-03T12:09:30.470Z,185.13
2023-02-03T12:10:30.839Z,182.35
2023-02-03T12:11:30.420Z,187.65
2023-02-03T12:12:30.325Z,184.08
2023-02-03T12:13:31.051Z,181.15
2023-02-03T12:14:30.230Z,184.69
2023-02-03T12:15:30.089Z,180.45
2023-02-03T12:16:30.729Z,177.91
2023-02-03T12:17:29.996Z,181.67
2023-02-03T12:18:29.944Z,177.97
2023-02-03T12:19:29.896Z,176.82
2023-02-03T12:20:30.225Z,169.28
2023-02-03T12:21:29.811Z,168.21
2023-02-03T12:22:31.917Z,162.95
2023-02-03T12:23:29.790Z,167.68
2023-02-03T12:24:30.241Z,164.20
2023-02-03T12:25:29.535Z,157.88
2023-02-03T12:26:29.493Z,160.12
2023-02-03T12:27:29.497Z,154.46
2023-02-03T12:28:33.593Z,154.14
2023-02-03T12:29:31.874Z,154.37
2023-02-03T12:30:29.788Z,155.85
2023-02-03T12:31:29.296Z,155.61
2023-02-03T12:32:29.178Z,155.54
2023-02-03T12:33:29.144Z,157.21
2023-02-03T12:34:30.115Z,154.43
2023-02-03T12:35:31.672Z,155.18
2023-02-03T12:36:28.981Z,155.58
2023-02-03T12:37:28.916Z,159.25
2023-02-03T12:38:28.853Z,156.61
2023-02-03T12:39:28.786Z,153.23
2023-02-03T12:40:28.961Z,164.98
2023-02-03T12:41:28.905Z,165.17
2023-02-03T12:42:28.675Z,165.59
2023-02-03T12:43:28.631Z,168.81
2023-02-03T12:44:28.540Z,166.66
2023-02-03T12:45:28.492Z,166.18
2023-02-03T12:46:28.491Z,172.93
2023-02-03T12:47:28.409Z,175.97
2023-02-03T12:48:28.407Z,170.56
2023-02-03T12:49:28.317Z,175.86
2023-02-03T12:50:28.511Z,179.88
2023-02-03T12:51:28.147Z,165.87
2023-02-03T12:52:28.128Z,168.21
2023-02-03T12:53:29.335Z,172.68
2023-02-03T12:54:27.984Z,174.01
2023-02-03T12:55:27.882Z,174.11
2023-02-03T12:56:27.862Z,183.91
2023-02-03T12:57:27.777Z,176.06
2023-02-03T12:58:27.757Z,187.75
2023-02-03T12:59:27.753Z,183.88
2023-02-03T13:00:28.021Z,183.58
2023-02-03T13:01:27.699Z,184.59
2023-02-03T13:02:27.534Z,184.64
2023-02-03T13:03:27.478Z,183.91
2023-02-03T13:04:27.418Z,184.36
2023-02-03T13:05:27.331Z,184.14
2023-02-03T13:06:27.285Z,187.68
2023-02-03T13:07:27.228Z,186.78
2023-02-03T13:08:27.144Z,183.83
2023-02-03T13:09:27.098Z,190.41
2023-02-03T13:10:27.484Z,185.42
2023-02-03T13:11:26.967Z,187.55
2023-02-03T13:12:26.954Z,186.47
2023-02-03T13:13:26.856Z,185.16
2023-02-03T13:14:26.811Z,182.13
2023-02-03T13:15:26.774Z,185.66
2023-02-03T13:16:26.731Z,184.73
2023-02-03T13:17:26.625Z,183.37
2023-02-03T13:18:26.697Z,180.39
2023-02-03T13:19:26.571Z,180.16
2023-02-03T13:20:26.767Z,180.72
2023-02-03T13:21:26.469Z,181.91
2023-02-03T13:22:26.365Z,184.81
2023-02-03T13:23:26.289Z,179.27
2023-02-03T13:24:26.278Z,184.34
2023-02-03T13:25:26.202Z,182.20
2023-02-03T13:26:26.733Z,184.80
2023-02-03T13:27:26.205Z,181.61
2023-02-03T13:28:26.102Z,185.10
2023-02-03T13:29:26.716Z,179.87
2023-02-03T13:30:26.492Z,182.30
2023-02-03T13:31:26.016Z,180.64
2023-02-03T13:32:25.799Z,180.04
2023-02-03T13:33:25.824Z,177.72
2023-02-03T13:34:25.947Z,182.31
2023-02-03T13:35:33.889Z,182.05
2023-02-03T13:36:26.584Z,182.14
2023-02-03T13:37:25.537Z,183.21
2023-02-03T13:38:25.494Z,182.90
2023-02-03T13:39:25.393Z,182.14
2023-02-03T13:40:25.375Z,182.23
2023-02-03T13:41:25.310Z,181.81
2023-02-03T13:42:25.321Z,179.74
2023-02-03T13:43:37.282Z,185.67
2023-02-03T13:44:26.248Z,182.21
2023-02-03T13:45:25.109Z,182.47
2023-02-03T13:46:25.106Z,177.68
2023-02-03T13:47:25.026Z,176.71
2023-02-03T13:48:24.992Z,178.41
2023-02-03T13:49:24.946Z,181.02
2023-02-03T13:50:25.048Z,178.35
2023-02-03T13:51:24.815Z,180.51
2023-02-03T13:52:24.745Z,180.98
2023-02-03T13:53:24.712Z,181.24
2023-02-03T13:54:24.626Z,179.49
2023-02-03T13:55:25.328Z,179.98
2023-02-03T13:56:24.554Z,179.19
2023-02-03T13:57:24.457Z,176.38
2023-02-03T13:58:25.288Z,180.86
2023-02-03T13:59:24.369Z,177.20
2023-02-03T14:00:24.303Z,174.26
2023-02-03T14:01:24.309Z,175.40
2023-02-03T14:02:24.230Z,176.49
2023-02-03T14:03:24.256Z,177.32
2023-02-03T14:04:24.215Z,179.67
2023-02-03T14:05:24.081Z,174.54
2023-02-03T14:06:24.021Z,176.04
2023-02-03T14:07:23.967Z,175.06
2023-02-03T14:08:23.915Z,175.35
2023-02-03T14:09:23.866Z,174.63
2023-02-03T14:10:24.749Z,172.75
2023-02-03T14:11:23.732Z,174.96
2023-02-03T14:12:23.705Z,173.30
2023-02-03T14:13:23.673Z,174.86
2023-02-03T14:14:24.261Z,174.41
2023-02-03T14:15:23.533Z,170.80
2023-02-03T14:16:23.530Z,177.42
2023-02-03T14:17:23.440Z,172.58
2023-02-03T14:18:23.358Z,172.82
2023-02-03T14:19:23.333Z,172.63
2023-02-03T14:20:23.335Z,175.11
2023-02-03T14:21:23.351Z,172.36
2023-02-03T14:22:23.172Z,172.68
2023-02-03T14:23:23.092Z,172.92
2023-02-03T14:24:23.064Z,170.51
2023-02-03T14:25:23.007Z,170.63
2023-02-03T14:26:22.998Z,172.73
2023-02-03T14:27:22.891Z,172.05
2023-02-03T14:28:22.892Z,169.64
2023-02-03T14:29:22.784Z,172.93
2023-02-03T14:30:22.723Z,171.64
2023-02-03T14:31:22.850Z,174.50
2023-02-03T14:32:22.630Z,171.81
2023-02-03T14:33:23.281Z,176.78
2023-02-03T14:34:22.510Z,172.01
2023-02-03T14:35:22.471Z,174.99
2023-02-03T14:36:22.415Z,172.33
2023-02-03T14:37:22.397Z,174.87
2023-02-03T14:38:22.296Z,171.39
2023-02-03T14:39:22.262Z,173.40
2023-02-03T14:40:22.258Z,172.93
2023-02-03T14:41:22.143Z,173.30
2023-02-03T14:42:22.147Z,171.82
2023-02-03T14:43:22.846Z,174.11
2023-02-03T14:44:22.025Z,172.16
2023-02-03T14:45:21.929Z,174.12
2023-02-03T14:46:21.970Z,175.71
2023-02-03T14:47:21.836Z,169.51
2023-02-03T14:48:21.779Z,176.69
2023-02-03T14:49:21.783Z,170.87
2023-02-03T14:50:21.697Z,172.97
2023-02-03T14:51:23.275Z,171.35
2023-02-03T14:52:21.617Z,172.56
2023-02-03T14:53:21.536Z,169.71
2023-02-03T14:54:21.506Z,170.03
2023-02-03T14:55:21.447Z,169.00
2023-02-03T14:56:21.443Z,165.23
2023-02-03T14:57:21.326Z,172.08
2023-02-03T14:58:21.291Z,169.73
2023-02-03T14:59:21.747Z,172.01
2023-02-03T15:00:21.766Z,169.79
2023-02-03T15:01:21.174Z,168.94
2023-02-03T15:02:21.088Z,170.27
2023-02-03T15:03:21.056Z,169.37
2023-02-03T15:04:21.091Z,172.99
2023-02-03T15:05:20.934Z,169.68
2023-02-03T15:06:20.873Z,175.08
2023-02-03T15:53:18.433Z,178.12
2023-02-03T15:54:18.381Z,173.46
2023-02-03T15:55:18.352Z,175.23
2023-02-03T15:56:18.261Z,175.88
2023-02-03T15:57:18.196Z,176.24
2023-02-03T15:58:18.165Z,176.27
2023-02-03T15:59:18.127Z,177.05
2023-02-03T16:00:18.149Z,177.48
2023-02-03T16:01:18.281Z,180.83
2023-02-03T16:02:17.961Z,184.41
2023-02-03T16:03:18.011Z,180.82
2023-02-03T16:04:17.863Z,177.43
2023-02-03T16:05:17.800Z,181.67
2023-02-03T16:06:17.769Z,179.91
2023-02-03T16:07:17.717Z,174.48
2023-02-03T16:08:17.719Z,180.76
2023-02-03T16:09:17.634Z,177.26
2023-02-03T16:10:17.585Z,171.92
2023-02-03T16:11:17.523Z,172.38
2023-02-03T16:12:17.497Z,173.53
2023-02-03T16:13:17.437Z,175.39
2023-02-03T16:14:17.419Z,180.54
2023-02-03T16:15:17.337Z,181.23
2023-02-03T16:16:17.335Z,181.88
2023-02-03T16:17:17.353Z,177.75
2023-02-03T16:18:17.186Z,183.01
2023-02-03T16:19:17.137Z,186.42
2023-02-03T16:20:17.111Z,178.90
2023-02-03T16:21:17.071Z,176.81
2023-02-03T16:22:16.987Z,176.01
2023-02-03T16:23:16.957Z,183.94
2023-02-03T16:24:16.888Z,175.76
2023-02-03T16:25:16.862Z,173.76
2023-02-03T16:26:16.803Z,185.14
2023-02-03T16:27:16.773Z,178.64
2023-02-03T16:29:16.756Z,177.62
2023-02-03T16:30:16.731Z,185.90
2023-02-03T16:31:16.919Z,184.06
2023-02-03T16:32:16.623Z,177.95
2023-02-03T16:33:16.569Z,176.98
2023-02-03T16:34:16.526Z,178.44
2023-02-03T16:35:16.531Z,183.41
2023-02-03T16:36:16.440Z,188.37
2023-02-03T16:37:17.284Z,182.36
2023-02-03T16:38:16.336Z,176.36
2023-02-03T16:39:16.270Z,182.78
2023-02-03T16:40:16.295Z,178.47
2023-02-03T16:41:16.183Z,190.10
2023-02-03T16:42:16.156Z,183.83
2023-02-03T16:43:16.106Z,185.04
2023-02-03T16:44:16.044Z,186.75
2023-02-03T16:45:17.530Z,189.15
2023-02-03T16:46:16.004Z,188.11
2023-02-03T16:47:15.915Z,180.11
2023-02-03T16:48:15.893Z,176.29
2023-02-03T16:49:15.811Z,183.57
2023-02-03T16:50:16.422Z,184.95
2023-02-03T16:51:15.755Z,181.75
2023-02-03T16:52:15.675Z,180.91
2023-02-03T16:53:15.648Z,184.73
2023-02-03T16:54:15.619Z,186.79
2023-02-03T16:55:15.549Z,186.66
2023-02-03T16:56:15.521Z,184.05
2023-02-03T16:57:15.462Z,184.48
2023-02-03T16:58:15.429Z,184.82
2023-02-03T16:59:15.370Z,184.87
2023-02-03T17:00:15.311Z,186.93
2023-02-03T17:01:15.396Z,188.49
2023-02-03T17:02:15.294Z,187.94
2023-02-03T17:03:15.188Z,184.57
2023-02-03T17:04:15.148Z,188.21
2023-02-03T17:05:15.083Z,187.10
2023-02-03T17:06:15.040Z,190.97
2023-02-03T17:07:14.981Z,184.44
2023-02-03T17:08:14.952Z,184.35
2023-02-03T17:09:14.897Z,184.30
2023-02-03T17:10:14.847Z,186.19